sensor_id;sensor_type;location;lat;lon;timestamp;pressure;altitude;pressure_sealevel;temperature;humidity
74794;BME280;63320;50.768;6.724;2023-01-10T00:01:05;99879.94;;;5.54;79.75
74794;BME280;63320;50.768;6.724;2023-01-10T00:03:30;99890.53;;;5.49;79.92
74794;BME280;63320;50.768;6.724;2023-01-10T00:05:56;99895.94;;;5.43;80.51
74794;BME280;63320;50.768;6.724;2023-01-10T00:08:21;99900.09;;;5.49;79.95
74794;BME280;63320;50.768;6.724;2023-01-10T00:10:48;99916.47;;;5.54;80.01
74794;BME280;63320;50.768;6.724;2023-01-10T00:13:14;99915.31;;;5.62;80.04
74794;BME280;63320;50.768;6.724;2023-01-10T00:15:39;99920.06;;;5.50;79.97
74794;BME280;63320;50.768;6.724;2023-01-10T00:18:05;99934.75;;;5.52;80.10
74794;BME280;63320;50.768;6.724;2023-01-10T00:20:31;99940.28;;;5.41;79.78
74794;BME280;63320;50.768;6.724;2023-01-10T00:22:56;99939.94;;;5.52;79.47
74794;BME280;63320;50.768;6.724;2023-01-10T00:25:22;99939.63;;;5.63;79.47
74794;BME280;63320;50.768;6.724;2023-01-10T00:27:51;99960.66;;;5.58;79.86
74794;BME280;63320;50.768;6.724;2023-01-10T00:30:17;99967.69;;;5.55;79.50
74794;BME280;63320;50.768;6.724;2023-01-10T00:32:43;99975.47;;;5.56;79.35
74794;BME280;63320;50.768;6.724;2023-01-10T00:35:09;99963.97;;;5.63;78.14
74794;BME280;63320;50.768;6.724;2023-01-10T00:37:34;99986.66;;;5.60;78.34
74794;BME280;63320;50.768;6.724;2023-01-10T00:40:00;99983.28;;;5.58;78.82
74794;BME280;63320;50.768;6.724;2023-01-10T00:42:25;99998.81;;;5.61;78.45
74794;BME280;63320;50.768;6.724;2023-01-10T00:44:52;99997.19;;;5.57;78.99
74794;BME280;63320;50.768;6.724;2023-01-10T00:47:17;99998.16;;;5.54;78.88
74794;BME280;63320;50.768;6.724;2023-01-10T00:49:42;99995.53;;;5.54;78.93
74794;BME280;63320;50.768;6.724;2023-01-10T00:52:08;100006.47;;;5.65;78.39
74794;BME280;63320;50.768;6.724;2023-01-10T00:54:33;100018.81;;;5.60;78.01
74794;BME280;63320;50.768;6.724;2023-01-10T00:56:58;100014.44;;;5.62;78.40
74794;BME280;63320;50.768;6.724;2023-01-10T00:59:24;100017.97;;;5.60;77.74
74794;BME280;63320;50.768;6.724;2023-01-10T01:01:51;100021.56;;;5.56;78.38
74794;BME280;63320;50.768;6.724;2023-01-10T01:04:16;100036.28;;;5.58;78.53
74794;BME280;63320;50.768;6.724;2023-01-10T01:06:42;100051.06;;;5.58;78.07
74794;BME280;63320;50.768;6.724;2023-01-10T01:09:07;100046.59;;;5.61;77.69
74794;BME280;63320;50.768;6.724;2023-01-10T01:11:33;100058.75;;;5.62;78.02
74794;BME280;63320;50.768;6.724;2023-01-10T01:13:58;100062.25;;;5.61;78.18
74794;BME280;63320;50.768;6.724;2023-01-10T01:16:23;100061.53;;;5.56;78.24
74794;BME280;63320;50.768;6.724;2023-01-10T01:18:50;100063.28;;;5.57;78.12
74794;BME280;63320;50.768;6.724;2023-01-10T01:21:15;100063.03;;;5.65;78.15
74794;BME280;63320;50.768;6.724;2023-01-10T01:23:41;100073.84;;;5.51;78.16
74794;BME280;63320;50.768;6.724;2023-01-10T01:26:06;100078.28;;;5.49;78.44
74794;BME280;63320;50.768;6.724;2023-01-10T01:28:32;100079.34;;;5.42;78.00
74794;BME280;63320;50.768;6.724;2023-01-10T01:30:57;100081.38;;;5.32;79.32
74794;BME280;63320;50.768;6.724;2023-01-10T01:33:23;100089.53;;;5.20;79.04
74794;BME280;63320;50.768;6.724;2023-01-10T01:35:49;100089.28;;;5.29;78.63
74794;BME280;63320;50.768;6.724;2023-01-10T01:38:15;100088.91;;;5.41;78.55
74794;BME280;63320;50.768;6.724;2023-01-10T01:40:41;100106.13;;;5.17;78.56
74794;BME280;63320;50.768;6.724;2023-01-10T01:43:19;100118.50;;;5.40;78.18
74794;BME280;63320;50.768;6.724;2023-01-10T01:45:46;100117.66;;;5.40;78.27
74794;BME280;63320;50.768;6.724;2023-01-10T01:48:15;100126.31;;;5.40;78.55
74794;BME280;63320;50.768;6.724;2023-01-10T01:50:46;100139.31;;;5.42;78.15
74794;BME280;63320;50.768;6.724;2023-01-10T01:53:19;100132.25;;;5.45;78.27
74794;BME280;63320;50.768;6.724;2023-01-10T01:55:47;100134.38;;;5.33;78.20
74794;BME280;63320;50.768;6.724;2023-01-10T01:58:16;100144.44;;;5.45;78.14
74794;BME280;63320;50.768;6.724;2023-01-10T02:00:43;100137.88;;;5.61;77.26
74794;BME280;63320;50.768;6.724;2023-01-10T02:03:08;100135.38;;;5.58;77.42
74794;BME280;63320;50.768;6.724;2023-01-10T02:05:36;100141.91;;;5.43;77.52
74794;BME280;63320;50.768;6.724;2023-01-10T02:08:03;100150.50;;;5.45;77.75
74794;BME280;63320;50.768;6.724;2023-01-10T02:10:35;100152.19;;;5.48;77.59
74794;BME280;63320;50.768;6.724;2023-01-10T02:13:05;100140.47;;;5.63;77.36
74794;BME280;63320;50.768;6.724;2023-01-10T02:15:31;100157.78;;;5.65;76.86
74794;BME280;63320;50.768;6.724;2023-01-10T02:17:58;100154.69;;;5.51;76.50
74794;BME280;63320;50.768;6.724;2023-01-10T02:20:27;100152.16;;;5.50;77.44
74794;BME280;63320;50.768;6.724;2023-01-10T02:23:28;100152.47;;;5.68;76.81
74794;BME280;63320;50.768;6.724;2023-01-10T02:26:25;100154.34;;;5.34;77.51
74794;BME280;63320;50.768;6.724;2023-01-10T02:29:43;100154.38;;;5.32;77.40
74794;BME280;63320;50.768;6.724;2023-01-10T02:32:23;100150.56;;;5.44;76.95
74794;BME280;63320;50.768;6.724;2023-01-10T02:35:00;100160.75;;;5.53;76.64
74794;BME280;63320;50.768;6.724;2023-01-10T02:37:36;100156.84;;;5.37;77.27
74794;BME280;63320;50.768;6.724;2023-01-10T02:40:07;100166.41;;;5.38;77.06
74794;BME280;63320;50.768;6.724;2023-01-10T02:42:42;100167.84;;;5.15;77.77
74794;BME280;63320;50.768;6.724;2023-01-10T02:45:13;100161.19;;;5.36;76.83
74794;BME280;63320;50.768;6.724;2023-01-10T02:47:42;100159.63;;;5.31;76.70
74794;BME280;63320;50.768;6.724;2023-01-10T02:53:17;100158.72;;;5.32;76.62
74794;BME280;63320;50.768;6.724;2023-01-10T02:56:01;100173.00;;;5.18;76.62
74794;BME280;63320;50.768;6.724;2023-01-10T02:58:43;100171.13;;;5.24;76.55
74794;BME280;63320;50.768;6.724;2023-01-10T03:01:16;100176.41;;;5.20;76.34
74794;BME280;63320;50.768;6.724;2023-01-10T03:03:51;100175.25;;;5.31;76.52
74794;BME280;63320;50.768;6.724;2023-01-10T03:06:25;100181.31;;;5.33;75.95
74794;BME280;63320;50.768;6.724;2023-01-10T03:08:58;100180.53;;;5.29;76.71
74794;BME280;63320;50.768;6.724;2023-01-10T03:11:28;100182.88;;;5.38;76.50
74794;BME280;63320;50.768;6.724;2023-01-10T03:13:57;100187.25;;;5.38;76.33
74794;BME280;63320;50.768;6.724;2023-01-10T03:16:27;100200.59;;;5.26;75.80
74794;BME280;63320;50.768;6.724;2023-01-10T03:18:57;100199.13;;;5.15;76.68
74794;BME280;63320;50.768;6.724;2023-01-10T03:21:24;100194.25;;;5.36;75.90
74794;BME280;63320;50.768;6.724;2023-01-10T03:23:53;100198.47;;;5.40;76.14
74794;BME280;63320;50.768;6.724;2023-01-10T03:26:26;100191.03;;;5.26;76.50
74794;BME280;63320;50.768;6.724;2023-01-10T03:28:56;100191.88;;;5.27;76.37
74794;BME280;63320;50.768;6.724;2023-01-10T03:31:27;100191.19;;;5.20;76.49
74794;BME280;63320;50.768;6.724;2023-01-10T03:33:56;100199.00;;;5.20;76.62
74794;BME280;63320;50.768;6.724;2023-01-10T03:36:27;100204.50;;;5.09;76.43
74794;BME280;63320;50.768;6.724;2023-01-10T03:38:56;100201.84;;;5.12;76.26
74794;BME280;63320;50.768;6.724;2023-01-10T03:41:31;100208.22;;;5.33;75.79
74794;BME280;63320;50.768;6.724;2023-01-10T03:44:05;100218.34;;;5.11;76.30
74794;BME280;63320;50.768;6.724;2023-01-10T03:46:36;100218.28;;;5.14;76.66
74794;BME280;63320;50.768;6.724;2023-01-10T03:49:08;100230.06;;;5.29;76.15
74794;BME280;63320;50.768;6.724;2023-01-10T03:51:35;100228.84;;;5.42;75.78
74794;BME280;63320;50.768;6.724;2023-01-10T03:54:02;100236.63;;;5.10;75.98
74794;BME280;63320;50.768;6.724;2023-01-10T03:56:27;100244.97;;;5.24;76.13
74794;BME280;63320;50.768;6.724;2023-01-10T03:58:53;100255.84;;;5.07;76.50
74794;BME280;63320;50.768;6.724;2023-01-10T04:01:18;100256.25;;;5.25;75.56
74794;BME280;63320;50.768;6.724;2023-01-10T04:03:43;100269.22;;;5.28;75.88
74794;BME280;63320;50.768;6.724;2023-01-10T04:06:10;100265.41;;;5.05;75.82
74794;BME280;63320;50.768;6.724;2023-01-10T04:08:35;100268.94;;;5.04;76.35
74794;BME280;63320;50.768;6.724;2023-01-10T04:11:01;100265.16;;;5.16;75.82
74794;BME280;63320;50.768;6.724;2023-01-10T04:13:26;100269.03;;;5.00;76.00
74794;BME280;63320;50.768;6.724;2023-01-10T04:15:51;100270.19;;;5.24;75.57
74794;BME280;63320;50.768;6.724;2023-01-10T04:18:17;100264.34;;;5.14;75.90
74794;BME280;63320;50.768;6.724;2023-01-10T04:20:42;100278.44;;;5.05;75.72
74794;BME280;63320;50.768;6.724;2023-01-10T04:23:09;100277.44;;;5.11;75.74
74794;BME280;63320;50.768;6.724;2023-01-10T04:25:34;100280.78;;;5.16;75.72
74794;BME280;63320;50.768;6.724;2023-01-10T04:27:59;100273.41;;;5.33;75.12
74794;BME280;63320;50.768;6.724;2023-01-10T04:30:25;100285.88;;;5.20;74.88
74794;BME280;63320;50.768;6.724;2023-01-10T04:32:50;100287.53;;;5.25;75.30
74794;BME280;63320;50.768;6.724;2023-01-10T04:35:15;100292.13;;;5.15;75.80
74794;BME280;63320;50.768;6.724;2023-01-10T04:37:41;100292.19;;;5.12;75.54
74794;BME280;63320;50.768;6.724;2023-01-10T04:40:10;100299.19;;;5.10;75.52
74794;BME280;63320;50.768;6.724;2023-01-10T04:42:35;100303.69;;;5.03;76.26
74794;BME280;63320;50.768;6.724;2023-01-10T04:45:01;100304.13;;;5.20;75.75
74794;BME280;63320;50.768;6.724;2023-01-10T04:47:26;100314.88;;;5.07;75.31
74794;BME280;63320;50.768;6.724;2023-01-10T04:49:51;100317.63;;;5.02;75.96
74794;BME280;63320;50.768;6.724;2023-01-10T04:52:17;100319.34;;;5.03;75.77
74794;BME280;63320;50.768;6.724;2023-01-10T04:54:42;100325.34;;;5.05;75.34
74794;BME280;63320;50.768;6.724;2023-01-10T04:57:09;100325.63;;;4.94;75.75
74794;BME280;63320;50.768;6.724;2023-01-10T04:59:34;100332.63;;;4.92;76.06
74794;BME280;63320;50.768;6.724;2023-01-10T05:01:59;100334.44;;;4.89;76.05
74794;BME280;63320;50.768;6.724;2023-01-10T05:04:25;100336.75;;;5.01;75.94
74794;BME280;63320;50.768;6.724;2023-01-10T05:06:50;100334.03;;;5.06;75.78
74794;BME280;63320;50.768;6.724;2023-01-10T05:09:16;100332.75;;;5.24;75.39
74794;BME280;63320;50.768;6.724;2023-01-10T05:11:41;100334.03;;;5.06;75.91
74794;BME280;63320;50.768;6.724;2023-01-10T05:14:08;100338.19;;;5.14;75.82
74794;BME280;63320;50.768;6.724;2023-01-10T05:16:33;100335.41;;;5.22;75.02
74794;BME280;63320;50.768;6.724;2023-01-10T05:18:58;100341.75;;;5.10;75.64
74794;BME280;63320;50.768;6.724;2023-01-10T05:21:24;100350.78;;;5.33;75.39
74794;BME280;63320;50.768;6.724;2023-01-10T05:23:49;100345.03;;;5.18;75.50
74794;BME280;63320;50.768;6.724;2023-01-10T05:26:17;100344.94;;;5.23;75.45
74794;BME280;63320;50.768;6.724;2023-01-10T05:28:43;100328.91;;;5.37;75.36
74794;BME280;63320;50.768;6.724;2023-01-10T05:31:12;100332.28;;;5.42;74.66
74794;BME280;63320;50.768;6.724;2023-01-10T05:33:38;100338.22;;;5.47;74.80
74794;BME280;63320;50.768;6.724;2023-01-10T05:36:05;100348.69;;;5.45;74.97
74794;BME280;63320;50.768;6.724;2023-01-10T05:38:31;100351.41;;;5.41;75.17
74794;BME280;63320;50.768;6.724;2023-01-10T05:40:57;100355.31;;;5.25;75.57
74794;BME280;63320;50.768;6.724;2023-01-10T05:43:23;100352.53;;;4.95;75.91
74794;BME280;63320;50.768;6.724;2023-01-10T05:45:49;100348.00;;;5.03;76.27
74794;BME280;63320;50.768;6.724;2023-01-10T05:48:16;100346.75;;;5.19;75.25
74794;BME280;63320;50.768;6.724;2023-01-10T05:50:41;100339.22;;;5.07;75.64
74794;BME280;63320;50.768;6.724;2023-01-10T05:53:07;100337.22;;;5.17;75.10
74794;BME280;63320;50.768;6.724;2023-01-10T05:55:32;100362.16;;;4.91;75.78
74794;BME280;63320;50.768;6.724;2023-01-10T05:57:58;100357.88;;;4.89;76.26
74794;BME280;63320;50.768;6.724;2023-01-10T06:00:23;100370.06;;;4.88;75.55
74794;BME280;63320;50.768;6.724;2023-01-10T06:02:49;100372.38;;;5.01;75.44
74794;BME280;63320;50.768;6.724;2023-01-10T06:05:16;100376.50;;;4.72;76.43
74794;BME280;63320;50.768;6.724;2023-01-10T06:07:41;100389.31;;;4.81;76.44
74794;BME280;63320;50.768;6.724;2023-01-10T06:10:07;100406.63;;;4.84;75.79
74794;BME280;63320;50.768;6.724;2023-01-10T06:12:32;100404.59;;;4.97;75.81
74794;BME280;63320;50.768;6.724;2023-01-10T06:14:58;100408.66;;;5.10;75.59
74794;BME280;63320;50.768;6.724;2023-01-10T06:17:23;100410.91;;;4.86;76.02
74794;BME280;63320;50.768;6.724;2023-01-10T06:19:48;100414.16;;;4.96;75.55
74794;BME280;63320;50.768;6.724;2023-01-10T06:22:15;100398.81;;;5.21;75.40
74794;BME280;63320;50.768;6.724;2023-01-10T06:24:40;100405.25;;;5.08;75.21
74794;BME280;63320;50.768;6.724;2023-01-10T06:27:06;100411.34;;;5.05;75.48
74794;BME280;63320;50.768;6.724;2023-01-10T06:29:31;100411.00;;;5.22;75.30
74794;BME280;63320;50.768;6.724;2023-01-10T06:31:56;100418.56;;;5.33;74.79
74794;BME280;63320;50.768;6.724;2023-01-10T06:34:22;100420.16;;;5.38;74.43
74794;BME280;63320;50.768;6.724;2023-01-10T06:36:47;100422.34;;;5.19;74.96
74794;BME280;63320;50.768;6.724;2023-01-10T06:39:14;100430.16;;;5.19;75.25
74794;BME280;63320;50.768;6.724;2023-01-10T06:41:39;100427.91;;;5.04;75.82
74794;BME280;63320;50.768;6.724;2023-01-10T06:44:04;100419.78;;;5.16;75.05
74794;BME280;63320;50.768;6.724;2023-01-10T06:46:30;100418.69;;;5.27;75.10
74794;BME280;63320;50.768;6.724;2023-01-10T06:48:55;100428.16;;;5.31;74.99
74794;BME280;63320;50.768;6.724;2023-01-10T06:51:20;100432.91;;;5.12;75.32
74794;BME280;63320;50.768;6.724;2023-01-10T06:53:46;100437.28;;;5.11;74.81
74794;BME280;63320;50.768;6.724;2023-01-10T06:56:13;100437.97;;;5.19;75.32
74794;BME280;63320;50.768;6.724;2023-01-10T06:58:38;100437.88;;;5.24;75.07
74794;BME280;63320;50.768;6.724;2023-01-10T07:01:04;100449.91;;;5.30;74.37
74794;BME280;63320;50.768;6.724;2023-01-10T07:03:29;100459.78;;;5.15;74.74
74794;BME280;63320;50.768;6.724;2023-01-10T07:05:55;100455.00;;;4.97;75.14
74794;BME280;63320;50.768;6.724;2023-01-10T07:08:24;100456.38;;;5.13;74.92
74794;BME280;63320;50.768;6.724;2023-01-10T07:10:49;100453.78;;;5.12;75.02
74794;BME280;63320;50.768;6.724;2023-01-10T07:13:16;100451.38;;;5.03;75.41
74794;BME280;63320;50.768;6.724;2023-01-10T07:15:41;100460.63;;;4.77;76.07
74794;BME280;63320;50.768;6.724;2023-01-10T07:18:06;100454.75;;;4.67;76.52
74794;BME280;63320;50.768;6.724;2023-01-10T07:20:32;100462.25;;;4.36;76.81
74794;BME280;63320;50.768;6.724;2023-01-10T07:22:58;100466.31;;;4.53;77.06
74794;BME280;63320;50.768;6.724;2023-01-10T07:25:25;100471.88;;;4.78;76.20
74794;BME280;63320;50.768;6.724;2023-01-10T07:27:51;100467.59;;;4.75;75.61
74794;BME280;63320;50.768;6.724;2023-01-10T07:30:18;100466.38;;;4.93;75.24
74794;BME280;63320;50.768;6.724;2023-01-10T07:32:43;100475.03;;;4.93;75.60
74794;BME280;63320;50.768;6.724;2023-01-10T07:35:08;100478.31;;;5.03;75.05
74794;BME280;63320;50.768;6.724;2023-01-10T07:37:34;100477.50;;;4.58;76.07
74794;BME280;63320;50.768;6.724;2023-01-10T07:39:59;100482.22;;;4.81;75.70
74794;BME280;63320;50.768;6.724;2023-01-10T07:42:24;100485.59;;;4.87;75.29
74794;BME280;63320;50.768;6.724;2023-01-10T07:44:50;100491.75;;;4.83;75.14
74794;BME280;63320;50.768;6.724;2023-01-10T07:47:16;100499.47;;;4.88;75.06
74794;BME280;63320;50.768;6.724;2023-01-10T07:49:42;100493.81;;;4.67;76.06
74794;BME280;63320;50.768;6.724;2023-01-10T07:52:07;100495.94;;;4.92;75.38
74794;BME280;63320;50.768;6.724;2023-01-10T07:54:32;100500.09;;;4.99;74.78
74794;BME280;63320;50.768;6.724;2023-01-10T07:56:58;100504.50;;;4.97;74.93
74794;BME280;63320;50.768;6.724;2023-01-10T07:59:23;100516.56;;;5.01;74.80
74794;BME280;63320;50.768;6.724;2023-01-10T08:01:48;100521.59;;;4.65;74.98
74794;BME280;63320;50.768;6.724;2023-01-10T08:04:15;100523.53;;;4.56;76.42
74794;BME280;63320;50.768;6.724;2023-01-10T08:06:40;100516.25;;;4.73;76.15
74794;BME280;63320;50.768;6.724;2023-01-10T08:09:06;100528.41;;;4.74;75.78
74794;BME280;63320;50.768;6.724;2023-01-10T08:11:31;100521.31;;;4.81;75.51
74794;BME280;63320;50.768;6.724;2023-01-10T08:13:56;100530.16;;;4.74;75.40
74794;BME280;63320;50.768;6.724;2023-01-10T08:16:22;100538.25;;;4.58;75.93
74794;BME280;63320;50.768;6.724;2023-01-10T08:18:47;100532.56;;;4.83;75.83
74794;BME280;63320;50.768;6.724;2023-01-10T08:21:14;100544.84;;;4.78;76.09
74794;BME280;63320;50.768;6.724;2023-01-10T08:23:39;100548.88;;;4.92;75.77
74794;BME280;63320;50.768;6.724;2023-01-10T08:26:05;100543.81;;;4.85;75.15
74794;BME280;63320;50.768;6.724;2023-01-10T08:28:30;100546.88;;;5.05;75.70
74794;BME280;63320;50.768;6.724;2023-01-10T08:30:56;100544.66;;;5.29;75.04
74794;BME280;63320;50.768;6.724;2023-01-10T08:33:21;100546.09;;;5.42;74.12
74794;BME280;63320;50.768;6.724;2023-01-10T08:35:47;100539.50;;;5.26;74.57
74794;BME280;63320;50.768;6.724;2023-01-10T08:38:14;100550.56;;;5.37;74.63
74794;BME280;63320;50.768;6.724;2023-01-10T08:40:41;100550.38;;;5.46;73.88
74794;BME280;63320;50.768;6.724;2023-01-10T08:43:09;100552.34;;;5.35;74.38
74794;BME280;63320;50.768;6.724;2023-01-10T08:45:35;100555.81;;;5.35;73.96
74794;BME280;63320;50.768;6.724;2023-01-10T08:48:02;100553.31;;;5.31;74.07
74794;BME280;63320;50.768;6.724;2023-01-10T08:50:27;100550.56;;;5.37;73.95
74794;BME280;63320;50.768;6.724;2023-01-10T08:52:53;100545.47;;;5.32;74.26
74794;BME280;63320;50.768;6.724;2023-01-10T08:55:20;100552.25;;;5.39;74.40
74794;BME280;63320;50.768;6.724;2023-01-10T08:57:45;100549.59;;;5.41;74.03
74794;BME280;63320;50.768;6.724;2023-01-10T09:00:11;100547.03;;;5.39;74.24
74794;BME280;63320;50.768;6.724;2023-01-10T09:02:38;100558.94;;;5.51;74.21
74794;BME280;63320;50.768;6.724;2023-01-10T09:05:04;100556.38;;;5.50;74.31
74794;BME280;63320;50.768;6.724;2023-01-10T09:07:29;100558.41;;;5.35;75.13
74794;BME280;63320;50.768;6.724;2023-01-10T09:09:55;100565.97;;;5.49;74.74
74794;BME280;63320;50.768;6.724;2023-01-10T09:12:21;100556.47;;;5.45;75.23
74794;BME280;63320;50.768;6.724;2023-01-10T09:14:47;100560.94;;;5.40;75.17
74794;BME280;63320;50.768;6.724;2023-01-10T09:17:12;100555.81;;;5.35;75.24
74794;BME280;63320;50.768;6.724;2023-01-10T09:19:37;100563.25;;;5.52;75.23
74794;BME280;63320;50.768;6.724;2023-01-10T09:22:03;100568.47;;;5.52;74.88
74794;BME280;63320;50.768;6.724;2023-01-10T09:24:28;100569.22;;;5.59;74.94
74794;BME280;63320;50.768;6.724;2023-01-10T09:26:53;100577.72;;;5.67;74.85
74794;BME280;63320;50.768;6.724;2023-01-10T09:29:20;100567.31;;;5.65;75.43
74794;BME280;63320;50.768;6.724;2023-01-10T09:31:45;100576.75;;;5.71;75.15
74794;BME280;63320;50.768;6.724;2023-01-10T09:34:11;100579.22;;;5.79;74.83
74794;BME280;63320;50.768;6.724;2023-01-10T09:36:36;100575.59;;;5.84;74.37
74794;BME280;63320;50.768;6.724;2023-01-10T09:39:01;100568.25;;;6.02;73.88
74794;BME280;63320;50.768;6.724;2023-01-10T09:41:50;100566.75;;;5.93;74.68
74794;BME280;63320;50.768;6.724;2023-01-10T09:44:23;100573.53;;;6.00;74.01
74794;BME280;63320;50.768;6.724;2023-01-10T09:46:55;100580.56;;;5.96;74.18
74794;BME280;63320;50.768;6.724;2023-01-10T09:49:38;100574.38;;;6.01;73.50
74794;BME280;63320;50.768;6.724;2023-01-10T09:52:14;100569.16;;;6.01;73.52
74794;BME280;63320;50.768;6.724;2023-01-10T09:54:43;100593.41;;;6.06;72.65
74794;BME280;63320;50.768;6.724;2023-01-10T09:57:13;100580.09;;;6.16;72.48
74794;BME280;63320;50.768;6.724;2023-01-10T09:59:42;100579.19;;;6.17;71.86
74794;BME280;63320;50.768;6.724;2023-01-10T10:02:18;100574.09;;;6.13;72.42
74794;BME280;63320;50.768;6.724;2023-01-10T10:05:00;100577.38;;;6.21;71.77
74794;BME280;63320;50.768;6.724;2023-01-10T10:07:28;100578.22;;;6.21;71.68
74794;BME280;63320;50.768;6.724;2023-01-10T10:09:56;100581.66;;;6.23;72.05
74794;BME280;63320;50.768;6.724;2023-01-10T10:12:27;100566.66;;;6.32;72.00
74794;BME280;63320;50.768;6.724;2023-01-10T10:15:03;100568.38;;;6.33;72.27
74794;BME280;63320;50.768;6.724;2023-01-10T10:17:41;100571.56;;;6.44;71.99
74794;BME280;63320;50.768;6.724;2023-01-10T10:20:30;100573.34;;;6.42;71.79
74794;BME280;63320;50.768;6.724;2023-01-10T10:23:11;100564.53;;;6.46;71.64
74794;BME280;63320;50.768;6.724;2023-01-10T10:25:49;100556.44;;;6.57;71.75
74794;BME280;63320;50.768;6.724;2023-01-10T10:28:44;100558.03;;;6.62;71.20
74794;BME280;63320;50.768;6.724;2023-01-10T10:31:19;100553.38;;;6.73;71.13
74794;BME280;63320;50.768;6.724;2023-01-10T10:33:55;100564.56;;;6.79;69.95
74794;BME280;63320;50.768;6.724;2023-01-10T10:36:32;100569.81;;;6.79;69.52
74794;BME280;63320;50.768;6.724;2023-01-10T10:39:01;100568.06;;;6.78;69.28
74794;BME280;63320;50.768;6.724;2023-01-10T10:41:31;100563.50;;;6.86;69.43
74794;BME280;63320;50.768;6.724;2023-01-10T10:44:01;100569.69;;;6.83;68.75
74794;BME280;63320;50.768;6.724;2023-01-10T10:46:29;100560.94;;;6.84;68.38
74794;BME280;63320;50.768;6.724;2023-01-10T10:48:57;100571.38;;;6.84;68.26
74794;BME280;63320;50.768;6.724;2023-01-10T10:51:26;100575.63;;;6.88;68.22
74794;BME280;63320;50.768;6.724;2023-01-10T10:53:55;100559.97;;;6.88;67.69
74794;BME280;63320;50.768;6.724;2023-01-10T10:56:22;100551.25;;;6.88;67.99
74794;BME280;63320;50.768;6.724;2023-01-10T10:58:50;100558.03;;;6.95;68.05
74794;BME280;63320;50.768;6.724;2023-01-10T11:01:17;100549.09;;;7.02;67.99
74794;BME280;63320;50.768;6.724;2023-01-10T11:03:46;100539.66;;;6.96;67.25
74794;BME280;63320;50.768;6.724;2023-01-10T11:06:13;100540.38;;;7.03;67.74
74794;BME280;63320;50.768;6.724;2023-01-10T11:08:42;100538.56;;;7.05;67.27
74794;BME280;63320;50.768;6.724;2023-01-10T11:11:14;100536.84;;;7.04;67.09
74794;BME280;63320;50.768;6.724;2023-01-10T11:13:45;100534.25;;;7.03;66.68
74794;BME280;63320;50.768;6.724;2023-01-10T11:16:26;100536.88;;;7.03;66.88
74794;BME280;63320;50.768;6.724;2023-01-10T11:19:09;100529.00;;;7.04;67.21
74794;BME280;63320;50.768;6.724;2023-01-10T11:21:34;100537.47;;;7.12;67.65
74794;BME280;63320;50.768;6.724;2023-01-10T11:24:00;100529.81;;;7.06;67.88
74794;BME280;63320;50.768;6.724;2023-01-10T11:26:28;100526.53;;;6.99;67.65
74794;BME280;63320;50.768;6.724;2023-01-10T11:29:04;100514.25;;;7.01;67.88
74794;BME280;63320;50.768;6.724;2023-01-10T11:31:31;100523.66;;;7.09;67.68
74794;BME280;63320;50.768;6.724;2023-01-10T11:33:57;100519.34;;;7.06;67.65
74794;BME280;63320;50.768;6.724;2023-01-10T11:36:24;100518.41;;;7.09;67.41
74794;BME280;63320;50.768;6.724;2023-01-10T11:38:59;100519.34;;;7.06;67.26
74794;BME280;63320;50.768;6.724;2023-01-10T11:41:25;100512.47;;;7.04;67.63
74794;BME280;63320;50.768;6.724;2023-01-10T11:43:51;100523.66;;;7.07;66.92
74794;BME280;63320;50.768;6.724;2023-01-10T11:46:18;100507.84;;;7.12;67.30
74794;BME280;63320;50.768;6.724;2023-01-10T11:48:47;100514.72;;;7.16;67.37
74794;BME280;63320;50.768;6.724;2023-01-10T11:51:18;100507.00;;;7.11;67.21
74794;BME280;63320;50.768;6.724;2023-01-10T11:53:48;100519.81;;;7.20;67.02
74794;BME280;63320;50.768;6.724;2023-01-10T11:56:22;100506.78;;;7.19;66.46
74794;BME280;63320;50.768;6.724;2023-01-10T11:58:49;100507.59;;;7.21;66.71
74794;BME280;63320;50.768;6.724;2023-01-10T12:01:27;100507.25;;;7.32;66.74
74794;BME280;63320;50.768;6.724;2023-01-10T12:03:53;100509.22;;;7.25;66.12
74794;BME280;63320;50.768;6.724;2023-01-10T12:06:19;100507.25;;;7.32;66.37
74794;BME280;63320;50.768;6.724;2023-01-10T12:08:46;100509.88;;;7.32;67.14
74794;BME280;63320;50.768;6.724;2023-01-10T12:11:22;100510.59;;;7.37;66.52
74794;BME280;63320;50.768;6.724;2023-01-10T12:13:48;100509.75;;;7.36;67.11
74794;BME280;63320;50.768;6.724;2023-01-10T12:16:17;100512.50;;;7.32;65.87
74794;BME280;63320;50.768;6.724;2023-01-10T12:18:42;100506.28;;;7.36;66.89
74794;BME280;63320;50.768;6.724;2023-01-10T12:21:09;100497.44;;;7.40;67.15
74794;BME280;63320;50.768;6.724;2023-01-10T12:23:36;100486.25;;;7.35;67.00
74794;BME280;63320;50.768;6.724;2023-01-10T12:26:04;100487.25;;;7.31;67.39
74794;BME280;63320;50.768;6.724;2023-01-10T12:28:30;100493.25;;;7.34;67.04
74794;BME280;63320;50.768;6.724;2023-01-10T12:30:57;100484.56;;;7.32;66.79
74794;BME280;63320;50.768;6.724;2023-01-10T12:33:26;100481.25;;;7.27;66.46
74794;BME280;63320;50.768;6.724;2023-01-10T12:35:56;100470.06;;;7.22;66.75
74794;BME280;63320;50.768;6.724;2023-01-10T12:38:28;100464.75;;;7.25;66.78
74794;BME280;63320;50.768;6.724;2023-01-10T12:40:57;100473.59;;;7.21;66.75
74794;BME280;63320;50.768;6.724;2023-01-10T12:43:29;100463.13;;;7.21;66.80
74794;BME280;63320;50.768;6.724;2023-01-10T12:46:01;100461.47;;;7.18;67.10
74794;BME280;63320;50.768;6.724;2023-01-10T12:48:33;100458.72;;;7.23;66.70
74794;BME280;63320;50.768;6.724;2023-01-10T12:51:06;100452.78;;;7.18;66.71
74794;BME280;63320;50.768;6.724;2023-01-10T12:53:39;100456.25;;;7.18;67.26
74794;BME280;63320;50.768;6.724;2023-01-10T12:56:12;100456.31;;;7.15;66.79
74794;BME280;63320;50.768;6.724;2023-01-10T12:58:42;100455.53;;;7.13;66.51
74794;BME280;63320;50.768;6.724;2023-01-10T13:01:10;100455.47;;;7.15;65.94
74794;BME280;63320;50.768;6.724;2023-01-10T13:03:38;100443.13;;;7.20;65.91
74794;BME280;63320;50.768;6.724;2023-01-10T13:06:03;100442.25;;;7.19;65.61
74794;BME280;63320;50.768;6.724;2023-01-10T13:08:32;100444.03;;;7.19;65.93